Time;durP1;ratioP1;P1;durP2;ratioP2;P2;SDS_P1;SDS_P2;PMS_P1;PMS_P2;Temp;Humidity;BMP_temperature;BMP_pressure;BME280_temperature;BME280_humidity;BME280_pressure;Samples;Min_cycle;Max_cycle;Signal;HPM_P1;HPM_P2
2024/03/05 00:00:52;;;;;;;18.48;12.13;;;12.80;89.50;;;;;;4995228;28;20026;-76
2024/03/05 00:03:17;;;;;;;18.63;12.60;;;12.70;89.40;;;;;;5012577;28;20399;-78
2024/03/05 00:05:43;;;;;;;20.30;13.18;;;12.80;89.50;;;;;;4995078;28;20117;-78
2024/03/05 00:08:08;;;;;;;19.80;12.55;;;12.80;89.50;;;;;;4995215;28;20087;-77
2024/03/05 00:10:34;;;;;;;17.88;11.18;;;12.80;89.50;;;;;;5012786;28;20022;-76
2024/03/05 00:12:59;;;;;;;19.02;12.10;;;12.70;89.40;;;;;;4994671;28;20387;-76
2024/03/05 00:15:26;;;;;;;18.88;11.93;;;12.70;89.50;;;;;;5012903;28;20026;-77
2024/03/05 00:17:52;;;;;;;20.52;12.15;;;12.80;89.50;;;;;;4994940;28;20026;-77
2024/03/05 00:20:20;;;;;;;19.85;12.77;;;12.80;89.50;;;;;;5012428;28;20026;-78
2024/03/05 00:22:47;;;;;;;19.33;12.50;;;12.80;89.50;;;;;;4994779;28;20026;-78
2024/03/05 00:25:13;;;;;;;19.38;12.80;;;12.80;89.50;;;;;;4995194;28;20033;-77
2024/03/05 00:27:39;;;;;;;18.05;12.32;;;12.70;89.50;;;;;;4994829;28;20033;-77
2024/03/05 00:30:08;;;;;;;20.13;12.68;;;12.80;89.50;;;;;;5012077;28;20026;-77
2024/03/05 00:32:34;;;;;;;18.88;12.57;;;12.80;89.50;;;;;;5012005;28;20029;-77
2024/03/05 00:34:59;;;;;;;20.27;13.25;;;12.80;89.50;;;;;;5012464;28;20034;-77
2024/03/05 00:37:25;;;;;;;18.42;12.18;;;12.70;89.50;;;;;;4994895;28;20037;-78
2024/03/05 00:39:50;;;;;;;19.15;12.45;;;12.70;89.50;;;;;;4994475;28;20080;-78
2024/03/05 00:42:17;;;;;;;19.50;12.75;;;12.80;89.50;;;;;;4994700;28;20076;-78
2024/03/05 00:44:43;;;;;;;19.25;12.38;;;12.70;89.50;;;;;;4994503;28;20487;-77
2024/03/05 00:47:08;;;;;;;18.95;12.52;;;12.80;90.00;;;;;;4994383;28;20014;-77
2024/03/05 00:49:35;;;;;;;19.50;12.93;;;12.80;89.50;;;;;;4994512;28;20029;-77
2024/03/05 00:52:00;;;;;;;18.17;12.65;;;12.80;89.50;;;;;;4994220;28;20026;-78
2024/03/05 00:54:26;;;;;;;19.52;12.52;;;12.80;89.50;;;;;;5012114;28;20025;-77
2024/03/05 00:56:51;;;;;;;17.83;11.45;;;12.80;89.50;;;;;;5012232;28;20057;-77
2024/03/05 00:59:17;;;;;;;17.92;12.18;;;12.70;89.50;;;;;;4993968;28;20406;-77
2024/03/05 01:01:43;;;;;;;19.42;12.25;;;12.70;89.50;;;;;;4994319;28;20030;-77
2024/03/05 01:04:08;;;;;;;19.08;12.02;;;12.80;89.50;;;;;;4993780;28;20049;-78
2024/03/05 01:06:34;;;;;;;21.38;13.13;;;12.80;89.50;;;;;;4994658;28;20478;-78
2024/03/05 01:09:00;;;;;;;18.38;12.13;;;12.70;89.50;;;;;;4994222;28;20176;-77
2024/03/05 01:11:26;;;;;;;17.30;12.13;;;12.80;89.50;;;;;;5011783;28;20026;-77
2024/03/05 01:13:51;;;;;;;19.77;12.15;;;12.80;89.50;;;;;;4993803;28;20026;-77
2024/03/05 01:16:17;;;;;;;19.30;12.27;;;12.80;90.00;;;;;;5012084;28;20083;-77
2024/03/05 01:18:42;;;;;;;19.10;12.55;;;12.80;89.60;;;;;;5011520;28;20127;-77
2024/03/05 01:21:08;;;;;;;18.80;12.38;;;12.80;89.50;;;;;;4993802;28;20420;-76
2024/03/05 01:23:33;;;;;;;18.92;12.07;;;12.70;89.50;;;;;;5014071;28;20025;-78
2024/03/05 01:25:59;;;;;;;18.40;12.02;;;12.70;89.60;;;;;;4998620;28;20570;-77
2024/03/05 01:28:28;;;;;;;18.70;12.50;;;12.80;89.60;;;;;;5015597;28;20033;-77
2024/03/05 01:30:54;;;;;;;17.83;12.32;;;12.70;89.50;;;;;;5015549;28;20029;-77
2024/03/05 01:33:19;;;;;;;18.40;12.00;;;12.80;89.60;;;;;;4997812;28;20807;-77
2024/03/05 01:35:48;;;;;;;18.17;12.20;;;12.70;89.50;;;;;;4998012;28;20053;-78
2024/03/05 01:38:14;;;;;;;18.83;12.18;;;12.80;89.60;;;;;;4997831;28;20036;-77
2024/03/05 01:40:40;;;;;;;19.90;12.57;;;12.70;89.50;;;;;;5015504;28;20022;-77
2024/03/05 01:43:06;;;;;;;19.27;12.93;;;12.70;89.50;;;;;;5015185;28;20049;-78
2024/03/05 01:45:33;;;;;;;17.27;11.63;;;12.70;89.50;;;;;;4998041;28;20076;-77
2024/03/05 01:47:59;;;;;;;17.77;11.63;;;12.70;89.50;;;;;;4997884;28;20116;-78
2024/03/05 01:50:26;;;;;;;17.48;11.93;;;12.70;89.50;;;;;;5015675;28;20497;-77
2024/03/05 01:52:52;;;;;;;17.73;11.82;;;12.70;89.50;;;;;;4997517;28;20030;-78
2024/03/05 01:55:19;;;;;;;17.30;11.88;;;12.70;89.50;;;;;;5015390;28;20026;-77
2024/03/05 01:57:48;;;;;;;19.25;12.43;;;12.70;89.50;;;;;;4998411;28;20057;-79
2024/03/05 02:00:15;;;;;;;18.38;12.23;;;12.70;89.50;;;;;;5015454;28;20065;-77
2024/03/05 02:02:43;;;;;;;18.80;11.88;;;12.70;89.50;;;;;;4998040;28;20026;-78
2024/03/05 02:05:08;;;;;;;18.33;11.88;;;12.70;89.50;;;;;;4997549;28;20086;-77
2024/03/05 02:07:37;;;;;;;17.20;11.48;;;12.70;89.50;;;;;;4997498;28;20112;-77
2024/03/05 02:10:07;;;;;;;18.23;11.65;;;12.70;89.50;;;;;;5014362;28;20026;-78
2024/03/05 02:12:34;;;;;;;19.48;12.63;;;12.70;89.50;;;;;;5014744;28;20029;-77
2024/03/05 02:14:59;;;;;;;17.17;11.73;;;12.70;89.50;;;;;;4997350;28;20030;-77
2024/03/05 02:17:26;;;;;;;18.63;11.77;;;12.70;89.50;;;;;;4997413;28;20080;-78
2024/03/05 02:19:52;;;;;;;17.15;11.90;;;12.70;89.60;;;;;;4996897;28;20474;-78
2024/03/05 02:22:17;;;;;;;18.15;12.07;;;12.70;89.50;;;;;;4996733;28;20056;-78
2024/03/05 02:24:43;;;;;;;18.33;12.30;;;12.70;89.50;;;;;;4996971;28;20026;-77
2024/03/05 02:27:09;;;;;;;17.40;12.10;;;12.70;89.60;;;;;;5014482;28;20018;-78
2024/03/05 02:29:38;;;;;;;18.23;11.90;;;12.70;89.50;;;;;;4996739;28;20038;-77
2024/03/05 02:32:06;;;;;;;19.15;12.45;;;12.70;89.60;;;;;;4996706;28;20022;-78
2024/03/05 02:34:32;;;;;;;18.63;11.95;;;12.70;89.60;;;;;;5013177;28;20032;-78
2024/03/05 02:36:58;;;;;;;19.40;11.93;;;12.70;89.50;;;;;;4996793;28;20129;-77
2024/03/05 02:39:24;;;;;;;19.50;12.80;;;12.70;89.50;;;;;;4996348;28;20697;-78
2024/03/05 02:41:49;;;;;;;18.83;12.52;;;12.70;89.50;;;;;;4996301;28;20387;-77
2024/03/05 02:44:16;;;;;;;16.60;11.35;;;12.70;89.60;;;;;;5014051;28;20382;-78
2024/03/05 02:46:42;;;;;;;18.50;11.93;;;12.70;89.60;;;;;;4996328;28;20109;-77
2024/03/05 02:49:08;;;;;;;16.38;11.00;;;12.80;89.60;;;;;;4996509;28;20555;-78
2024/03/05 02:51:34;;;;;;;17.98;11.70;;;12.70;89.60;;;;;;4996186;28;20117;-77
2024/03/05 02:54:00;;;;;;;19.00;12.40;;;12.70;89.60;;;;;;4996172;28;20136;-78
2024/03/05 02:56:25;;;;;;;17.98;11.40;;;12.70;90.00;;;;;;5014283;28;20038;-77
2024/03/05 02:58:51;;;;;;;17.30;11.45;;;12.70;89.60;;;;;;4996532;28;20496;-77
2024/03/05 03:01:17;;;;;;;17.75;11.70;;;12.70;89.60;;;;;;4996136;28;20030;-78
2024/03/05 03:03:42;;;;;;;19.15;12.48;;;12.70;89.60;;;;;;5013789;28;20076;-77
2024/03/05 03:06:16;;;;;;;18.00;12.18;;;12.70;89.60;;;;;;4996436;28;20022;-78
2024/03/05 03:08:41;;;;;;;18.27;11.98;;;12.70;89.60;;;;;;5014011;28;20026;-78
2024/03/05 03:11:07;;;;;;;17.65;11.95;;;12.70;89.60;;;;;;4996122;28;20033;-78
2024/03/05 03:13:33;;;;;;;17.85;10.93;;;12.70;89.60;;;;;;4996144;28;20030;-78
2024/03/05 03:15:58;;;;;;;17.63;11.32;;;12.70;89.60;;;;;;4996662;28;20478;-78
2024/03/05 03:18:24;;;;;;;17.13;11.30;;;12.70;89.60;;;;;;4996378;28;20124;-77
2024/03/05 03:20:49;;;;;;;17.58;11.77;;;12.70;89.60;;;;;;5013802;28;20057;-78
2024/03/05 03:23:15;;;;;;;18.08;11.55;;;12.70;89.60;;;;;;4995689;28;20080;-77
2024/03/05 03:25:40;;;;;;;17.90;11.57;;;12.80;89.60;;;;;;5013993;28;20026;-78
2024/03/05 03:28:05;;;;;;;17.75;12.32;;;12.70;89.60;;;;;;5013184;28;20076;-77
2024/03/05 03:30:31;;;;;;;16.52;11.43;;;12.70;89.60;;;;;;5013587;28;20037;-78
2024/03/05 03:32:57;;;;;;;18.52;12.10;;;12.70;89.60;;;;;;4995526;28;20022;-77
2024/03/05 03:35:23;;;;;;;17.38;11.32;;;12.70;89.60;;;;;;5013282;28;20030;-77
2024/03/05 03:37:49;;;;;;;17.40;11.50;;;12.70;89.60;;;;;;4995475;28;20037;-78
2024/03/05 03:40:21;;;;;;;18.23;12.05;;;12.70;89.60;;;;;;4995355;28;20153;-78
2024/03/05 03:42:50;;;;;;;17.83;11.43;;;12.70;89.60;;;;;;5012858;28;20045;-77
2024/03/05 03:45:17;;;;;;;17.48;11.63;;;12.70;89.60;;;;;;5008865;28;20831;-76
2024/03/05 03:47:43;;;;;;;16.92;11.18;;;12.70;89.60;;;;;;4997741;28;20030;-78
2024/03/05 03:50:09;;;;;;;18.58;11.95;;;12.70;89.60;;;;;;4995065;28;20022;-78
2024/03/05 03:52:35;;;;;;;17.52;11.85;;;12.70;89.60;;;;;;4995134;28;20034;-78
2024/03/05 03:55:01;;;;;;;17.83;11.93;;;12.70;89.60;;;;;;5013011;28;20113;-77
2024/03/05 03:57:26;;;;;;;16.63;10.93;;;12.70;89.60;;;;;;4995226;28;20030;-77
2024/03/05 03:59:53;;;;;;;17.02;11.50;;;12.60;89.60;;;;;;4995178;28;20030;-78
2024/03/05 04:02:19;;;;;;;17.02;11.18;;;12.70;89.60;;;;;;4994770;28;20030;-77
2024/03/05 04:04:45;;;;;;;17.90;11.80;;;12.70;89.60;;;;;;4995227;28;20051;-78
2024/03/05 04:07:11;;;;;;;18.50;11.52;;;12.60;89.60;;;;;;4995217;28;20538;-78
2024/03/05 04:09:36;;;;;;;15.75;11.00;;;12.60;89.60;;;;;;5012311;28;20084;-77
2024/03/05 04:12:02;;;;;;;17.70;11.52;;;12.70;89.60;;;;;;4994841;28;20036;-76
2024/03/05 04:14:27;;;;;;;17.17;11.63;;;12.70;89.60;;;;;;4995643;28;20045;-78
2024/03/05 04:16:53;;;;;;;17.85;11.90;;;12.70;89.60;;;;;;5011057;28;20430;-77
2024/03/05 04:19:18;;;;;;;16.83;11.32;;;12.70;89.70;;;;;;5009854;28;20030;-78
2024/03/05 04:21:48;;;;;;;19.52;12.40;;;12.70;89.60;;;;;;4992418;28;20026;-78
2024/03/05 04:24:14;;;;;;;17.15;11.90;;;12.60;89.60;;;;;;4992417;28;20034;-77
2024/03/05 04:26:41;;;;;;;16.33;11.25;;;12.70;89.60;;;;;;4983161;28;20031;-79
2024/03/05 04:29:09;;;;;;;19.10;12.60;;;12.70;89.60;;;;;;4992996;28;20113;-78
2024/03/05 04:31:39;;;;;;;17.77;11.80;;;12.70;89.60;;;;;;4993250;28;20037;-79
2024/03/05 04:34:05;;;;;;;17.20;11.73;;;12.70;89.60;;;;;;4974451;28;20168;-80
2024/03/05 04:36:32;;;;;;;18.55;12.18;;;12.70;89.60;;;;;;4974771;28;20550;-78
2024/03/05 04:38:57;;;;;;;17.40;10.98;;;12.70;89.70;;;;;;4976873;28;20033;-80
2024/03/05 04:41:23;;;;;;;17.48;11.55;;;12.70;89.60;;;;;;4993221;28;20487;-78
2024/03/05 04:43:48;;;;;;;17.88;11.75;;;12.70;90.00;;;;;;4992850;28;20026;-79
2024/03/05 04:46:14;;;;;;;17.73;11.27;;;12.70;89.70;;;;;;5008480;28;20115;-78
2024/03/05 04:48:40;;;;;;;16.77;11.45;;;12.70;89.70;;;;;;5009024;28;20198;-79
2024/03/05 04:51:09;;;;;;;18.88;12.05;;;12.70;89.70;;;;;;5009033;28;20034;-78
2024/03/05 04:53:38;;;;;;;17.67;11.70;;;12.70;89.70;;;;;;5009067;28;20513;-79
2024/03/05 04:56:04;;;;;;;18.23;12.20;;;12.70;89.70;;;;;;5007821;28;20041;-79
2024/03/05 04:58:29;;;;;;;19.17;12.43;;;12.70;89.70;;;;;;5007567;28;20076;-79
2024/03/05 05:00:55;;;;;;;16.83;11.50;;;12.70;89.70;;;;;;5008670;28;20038;-81
2024/03/05 05:03:20;;;;;;;17.45;11.13;;;12.70;89.70;;;;;;5009913;28;20501;-79
2024/03/05 05:05:46;;;;;;;18.50;11.80;;;12.70;89.70;;;;;;5013927;28;20026;-81
2024/03/05 05:08:12;;;;;;;17.40;12.00;;;12.70;89.70;;;;;;5012435;28;20041;-79
2024/03/05 05:10:38;;;;;;;19.10;12.55;;;12.70;89.70;;;;;;5012886;28;20511;-83
2024/03/05 05:13:04;;;;;;;16.63;10.95;;;12.70;89.70;;;;;;5009551;28;20068;-77
2024/03/05 05:15:30;;;;;;;17.60;11.30;;;12.70;89.70;;;;;;5007589;28;20026;-79
2024/03/05 05:17:58;;;;;;;17.33;11.40;;;12.70;89.70;;;;;;5007861;28;20034;-79
2024/03/05 05:20:24;;;;;;;18.17;12.30;;;12.70;89.70;;;;;;5008311;28;20026;-79
2024/03/05 05:22:49;;;;;;;17.77;11.77;;;12.70;89.70;;;;;;5009333;28;20368;-78
2024/03/05 05:25:16;;;;;;;18.27;11.43;;;12.60;89.60;;;;;;5006989;28;20072;-78
2024/03/05 05:27:41;;;;;;;17.45;11.50;;;12.70;89.70;;;;;;5009162;28;20328;-77
2024/03/05 05:30:07;;;;;;;15.68;10.25;;;12.70;89.70;;;;;;5007621;28;20435;-77
2024/03/05 05:32:36;;;;;;;17.52;10.90;;;12.70;89.70;;;;;;5008142;28;20064;-79
2024/03/05 05:35:05;;;;;;;17.15;10.85;;;12.70;89.70;;;;;;5007162;28;20088;-77
2024/03/05 05:37:31;;;;;;;18.85;12.18;;;12.70;89.70;;;;;;5009291;28;20026;-79
2024/03/05 05:39:57;;;;;;;18.85;11.95;;;12.70;89.70;;;;;;5008079;28;20038;-79
2024/03/05 05:42:23;;;;;;;16.50;11.18;;;12.70;89.70;;;;;;5008733;28;20100;-80
2024/03/05 05:44:49;;;;;;;18.35;12.00;;;12.70;89.70;;;;;;5009711;28;20021;-79
2024/03/05 05:47:15;;;;;;;17.65;11.57;;;12.70;89.70;;;;;;5006107;28;20029;-78
2024/03/05 05:49:40;;;;;;;17.77;11.43;;;12.70;89.70;;;;;;5009243;28;20034;-79
2024/03/05 05:52:06;;;;;;;18.63;11.77;;;12.70;89.70;;;;;;5008640;28;20299;-79
2024/03/05 05:54:44;;;;;;;18.70;11.88;;;12.70;89.70;;;;;;4990214;28;20034;-76
2024/03/05 05:57:10;;;;;;;18.38;11.63;;;12.70;89.70;;;;;;4991988;28;20712;-79
2024/03/05 05:59:41;;;;;;;19.05;12.13;;;12.70;89.70;;;;;;4989360;28;20026;-79
2024/03/05 06:02:08;;;;;;;17.35;11.27;;;12.70;89.70;;;;;;4987453;28;20018;-78
2024/03/05 06:04:35;;;;;;;17.08;11.23;;;12.70;89.70;;;;;;4990983;28;20353;-77
2024/03/05 06:07:01;;;;;;;19.05;12.25;;;12.70;89.70;;;;;;4992244;28;20022;-79
2024/03/05 06:09:34;;;;;;;18.38;12.10;;;12.70;89.70;;;;;;4993737;28;20053;-80
2024/03/05 06:12:01;;;;;;;16.63;11.00;;;12.70;89.60;;;;;;4994488;28;20030;-80
2024/03/05 06:14:27;;;;;;;17.42;11.75;;;12.70;89.70;;;;;;4995528;28;20501;-78
2024/03/05 06:16:53;;;;;;;17.40;11.73;;;12.70;89.70;;;;;;5013600;28;20026;-78
2024/03/05 06:19:18;;;;;;;18.15;12.02;;;12.70;89.70;;;;;;5014432;28;20112;-77
2024/03/05 06:21:44;;;;;;;16.00;11.05;;;12.70;89.70;;;;;;4996831;28;20392;-77
2024/03/05 06:24:09;;;;;;;18.20;11.32;;;12.70;90.10;;;;;;5014226;28;20022;-78
2024/03/05 06:26:36;;;;;;;17.25;11.35;;;12.70;89.70;;;;;;4996623;28;20018;-78
2024/03/05 06:29:04;;;;;;;27.90;12.30;;;12.70;89.70;;;;;;4996630;28;20647;-77
2024/03/05 06:31:29;;;;;;;29.15;14.70;;;12.70;89.80;;;;;;5014513;28;20053;-77
2024/03/05 06:33:55;;;;;;;27.17;14.70;;;12.60;89.30;;;;;;5013833;28;20060;-78
2024/03/05 06:36:22;;;;;;;21.38;11.85;;;12.60;89.40;;;;;;5013990;28;20505;-78
2024/03/05 06:38:48;;;;;;;20.45;12.73;;;12.60;89.50;;;;;;5013620;28;20458;-78
2024/03/05 06:41:14;;;;;;;29.60;13.85;;;12.60;89.30;;;;;;5014028;28;20046;-78
2024/03/05 06:43:41;;;;;;;24.98;15.00;;;12.70;89.30;;;;;;4996046;28;20079;-78
2024/03/05 06:46:09;;;;;;;28.50;15.50;;;12.70;89.20;;;;;;5013818;28;20026;-77
2024/03/05 06:48:37;;;;;;;24.50;15.30;;;12.70;89.20;;;;;;4996153;28;20033;-78
2024/03/05 06:51:16;;;;;;;27.08;15.68;;;12.70;89.20;;;;;;4996071;28;20091;-78
2024/03/05 06:56:40;;;;;;;24.55;14.68;;;12.60;89.60;;;;;;5013763;28;20091;-78
2024/03/05 06:59:06;;;;;;;24.63;15.30;;;12.70;89.20;;;;;;4995929;28;20033;-78
2024/03/05 07:01:34;;;;;;;27.65;16.10;;;12.70;89.30;;;;;;4996017;28;20037;-78
2024/03/05 07:04:01;;;;;;;25.73;15.38;;;12.70;89.30;;;;;;4995967;28;20549;-78
2024/03/05 07:06:27;;;;;;;22.38;14.57;;;12.70;89.80;;;;;;4995753;28;20402;-79
2024/03/05 07:08:54;;;;;;;24.95;14.95;;;12.70;89.30;;;;;;4995785;28;20033;-78
2024/03/05 07:11:21;;;;;;;23.60;14.07;;;12.70;89.40;;;;;;5013480;28;20022;-77
2024/03/05 07:13:48;;;;;;;24.77;14.43;;;12.70;89.40;;;;;;5013066;28;20076;-78
2024/03/05 07:16:15;;;;;;;21.58;13.95;;;12.70;89.40;;;;;;5013292;28;20037;-78
2024/03/05 07:18:47;;;;;;;22.00;13.82;;;12.70;89.40;;;;;;4995657;28;20026;-78
2024/03/05 07:21:13;;;;;;;23.60;13.65;;;12.70;89.40;;;;;;4995149;28;20037;-77
2024/03/05 07:23:39;;;;;;;23.10;13.93;;;12.70;89.50;;;;;;4995121;28;20030;-77
2024/03/05 07:26:05;;;;;;;23.73;14.38;;;12.70;89.50;;;;;;4995544;28;20022;-78
2024/03/05 07:28:31;;;;;;;22.02;13.60;;;12.70;89.50;;;;;;4995382;28;20028;-78
2024/03/05 07:30:56;;;;;;;20.98;13.60;;;12.70;89.50;;;;;;4995497;28;20022;-79
2024/03/05 07:33:23;;;;;;;22.67;13.85;;;12.70;89.50;;;;;;4995050;28;20022;-78
2024/03/05 07:35:48;;;;;;;22.02;14.25;;;12.70;89.50;;;;;;5013034;28;20022;-79
2024/03/05 07:38:15;;;;;;;22.02;13.27;;;12.70;89.60;;;;;;5012613;28;20091;-77
2024/03/05 07:40:47;;;;;;;22.15;13.38;;;12.70;89.50;;;;;;4995001;28;20036;-78
2024/03/05 07:43:13;;;;;;;22.25;14.23;;;12.70;89.60;;;;;;5012411;28;20049;-77
2024/03/05 07:45:39;;;;;;;24.70;14.30;;;12.60;89.50;;;;;;4998911;28;20081;-77
2024/03/05 07:48:05;;;;;;;21.83;13.38;;;12.70;89.60;;;;;;4992925;28;20018;-77
2024/03/05 07:50:31;;;;;;;21.70;14.25;;;12.70;89.60;;;;;;4992211;28;20117;-78
2024/03/05 07:52:59;;;;;;;23.02;13.90;;;12.60;89.60;;;;;;4975383;28;20122;-77
2024/03/05 07:55:26;;;;;;;21.17;13.43;;;12.70;89.60;;;;;;4974720;28;20149;-78
2024/03/05 07:57:53;;;;;;;23.27;14.02;;;12.60;89.50;;;;;;4992968;28;20030;-77
2024/03/05 08:00:22;;;;;;;21.20;13.50;;;12.70;89.60;;;;;;4975050;28;20031;-78
2024/03/05 08:02:49;;;;;;;21.42;13.55;;;12.70;89.60;;;;;;4975206;28;20125;-78
2024/03/05 08:05:17;;;;;;;20.40;12.98;;;12.70;89.60;;;;;;4992800;28;20029;-77
2024/03/05 08:07:44;;;;;;;21.70;13.40;;;12.70;89.60;;;;;;4992762;28;20545;-79
2024/03/05 08:10:10;;;;;;;21.83;13.60;;;12.70;89.60;;;;;;4975524;28;20026;-78
2024/03/05 08:12:37;;;;;;;21.23;13.27;;;12.70;89.60;;;;;;4975072;28;20038;-78
2024/03/05 08:15:06;;;;;;;20.73;13.23;;;12.70;89.60;;;;;;4975222;28;20747;-78
2024/03/05 08:17:35;;;;;;;19.58;13.02;;;12.70;89.60;;;;;;4992360;28;20138;-79
2024/03/05 08:20:01;;;;;;;21.13;13.65;;;12.70;89.60;;;;;;4974993;28;20088;-78
2024/03/05 08:22:27;;;;;;;20.27;13.10;;;12.70;89.60;;;;;;4975017;28;20125;-78
2024/03/05 08:24:53;;;;;;;21.02;13.82;;;12.70;89.60;;;;;;4974885;28;20033;-79
2024/03/05 08:27:18;;;;;;;21.50;13.10;;;12.70;89.70;;;;;;4975034;28;20034;-78
2024/03/05 08:29:45;;;;;;;22.10;13.73;;;12.70;89.60;;;;;;4974933;28;20030;-78
2024/03/05 08:32:11;;;;;;;20.13;13.00;;;12.60;89.60;;;;;;4991229;28;20659;-77
2024/03/05 08:34:38;;;;;;;19.65;13.13;;;12.70;89.60;;;;;;4974704;28;20406;-77
2024/03/05 08:37:04;;;;;;;20.40;12.93;;;12.70;89.70;;;;;;4974792;28;20061;-78
2024/03/05 08:39:30;;;;;;;19.15;12.63;;;12.70;89.70;;;;;;4974486;28;20483;-78
2024/03/05 08:41:55;;;;;;;20.42;13.43;;;12.70;89.70;;;;;;4974546;28;20117;-78
2024/03/05 08:44:21;;;;;;;19.55;12.77;;;12.70;89.70;;;;;;4974833;28;20547;-78
2024/03/05 08:46:47;;;;;;;20.15;11.88;;;12.70;89.70;;;;;;4992569;28;20101;-77
2024/03/05 08:49:12;;;;;;;20.67;12.57;;;12.70;89.70;;;;;;4974658;28;20057;-78
2024/03/05 08:51:38;;;;;;;18.88;12.30;;;12.70;89.70;;;;;;4974295;28;20037;-78
2024/03/05 08:54:09;;;;;;;19.90;13.18;;;12.70;89.70;;;;;;4974588;28;20033;-77
2024/03/05 08:56:39;;;;;;;18.60;12.15;;;12.70;89.70;;;;;;4992107;28;20109;-78
2024/03/05 08:59:06;;;;;;;19.77;12.82;;;12.70;89.70;;;;;;4992041;28;20812;-77
2024/03/05 09:01:35;;;;;;;22.02;13.27;;;12.70;89.70;;;;;;4974409;28;20030;-77
2024/03/05 09:04:03;;;;;;;19.48;12.98;;;12.70;89.60;;;;;;4974197;28;20026;-77
2024/03/05 09:06:29;;;;;;;19.80;12.68;;;12.70;89.60;;;;;;4974387;28;20029;-77
2024/03/05 09:08:55;;;;;;;19.15;12.35;;;12.70;89.60;;;;;;4974311;28;20045;-77
2024/03/05 09:11:20;;;;;;;19.60;12.23;;;12.70;89.60;;;;;;4974306;28;20034;-77
2024/03/05 09:13:46;;;;;;;19.02;12.52;;;12.70;89.60;;;;;;4991604;28;20026;-78
2024/03/05 09:16:15;;;;;;;20.13;12.35;;;12.70;89.60;;;;;;4974519;28;20058;-78
2024/03/05 09:18:40;;;;;;;21.65;13.43;;;12.70;89.50;;;;;;4973977;28;20581;-79
2024/03/05 09:21:11;;;;;;;19.75;13.25;;;12.70;89.60;;;;;;4974433;28;20026;-78
2024/03/05 09:23:39;;;;;;;20.65;12.63;;;12.80;89.60;;;;;;4991565;28;20018;-78
2024/03/05 09:26:07;;;;;;;20.63;13.05;;;12.70;89.50;;;;;;4974414;28;20108;-78
2024/03/05 09:28:36;;;;;;;19.38;11.55;;;12.80;89.60;;;;;;4991336;28;20015;-78
2024/03/05 09:31:02;;;;;;;19.33;12.20;;;12.80;89.60;;;;;;4991564;28;20422;-78
2024/03/05 09:33:29;;;;;;;20.40;13.35;;;12.80;89.50;;;;;;4991355;28;20037;-78
2024/03/05 09:35:55;;;;;;;19.52;12.52;;;12.80;89.60;;;;;;4974224;28;20033;-79
2024/03/05 09:38:20;;;;;;;19.10;12.38;;;12.80;89.50;;;;;;4973924;28;20034;-78
2024/03/05 09:40:46;;;;;;;20.88;13.02;;;12.80;89.50;;;;;;4974185;28;20027;-78
2024/03/05 09:43:13;;;;;;;19.73;12.05;;;12.90;89.40;;;;;;4974166;28;20054;-79
2024/03/05 09:45:41;;;;;;;19.40;12.20;;;12.80;89.20;;;;;;4977628;28;20077;-79
2024/03/05 09:48:10;;;;;;;17.85;11.75;;;12.90;89.10;;;;;;4977848;28;20026;-78
2024/03/05 09:50:37;;;;;;;19.88;13.13;;;13.00;88.90;;;;;;4977814;28;20026;-78
2024/03/05 09:53:03;;;;;;;17.35;11.43;;;13.00;88.90;;;;;;4995070;28;20483;-77
2024/03/05 09:55:29;;;;;;;17.60;11.77;;;13.10;88.70;;;;;;4977287;28;20093;-78
2024/03/05 09:57:55;;;;;;;19.13;12.48;;;13.10;88.50;;;;;;4977752;28;20025;-79
2024/03/05 10:00:21;;;;;;;18.63;12.40;;;13.10;88.40;;;;;;4977510;28;20027;-79
2024/03/05 10:02:48;;;;;;;18.23;11.55;;;13.10;88.90;;;;;;4994922;28;20037;-78
2024/03/05 10:05:18;;;;;;;19.10;12.20;;;13.20;88.30;;;;;;4977587;28;20033;-78
2024/03/05 10:07:44;;;;;;;18.50;12.13;;;13.20;88.30;;;;;;4977620;28;20025;-78
2024/03/05 10:10:12;;;;;;;17.15;11.40;;;13.20;88.20;;;;;;4994995;28;20077;-78
2024/03/05 10:12:43;;;;;;;18.60;12.00;;;13.20;88.20;;;;;;4977044;28;20030;-78
2024/03/05 10:15:24;;;;;;;18.33;12.02;;;13.20;88.10;;;;;;4994937;28;20109;-79
2024/03/05 10:17:52;;;;;;;17.25;11.40;;;13.20;88.20;;;;;;4994682;28;20031;-78
2024/03/05 10:20:25;;;;;;;17.98;11.93;;;13.20;88.20;;;;;;4977055;28;20026;-78
2024/03/05 10:22:52;;;;;;;18.13;11.63;;;13.20;88.20;;;;;;4993056;28;20073;-78
2024/03/05 10:25:17;;;;;;;19.05;12.18;;;13.10;88.30;;;;;;4994686;28;20022;-78
2024/03/05 10:27:47;;;;;;;17.45;11.43;;;13.10;88.40;;;;;;4976908;28;20799;-79
2024/03/05 10:30:25;;;;;;;18.67;11.82;;;13.10;88.40;;;;;;4976997;28;20030;-78
2024/03/05 10:32:59;;;;;;;17.50;11.15;;;13.10;88.40;;;;;;4993018;28;20395;-77
2024/03/05 10:35:25;;;;;;;18.75;11.63;;;13.10;88.50;;;;;;4994322;28;20034;-77
2024/03/05 10:38:00;;;;;;;17.60;11.50;;;13.10;88.60;;;;;;4976854;28;20497;-79
2024/03/05 10:40:34;;;;;;;18.27;11.38;;;13.10;88.70;;;;;;4994041;28;20022;-78
2024/03/05 10:43:01;;;;;;;17.13;11.27;;;13.10;88.70;;;;;;4976831;28;20026;-78
2024/03/05 10:45:27;;;;;;;18.65;11.80;;;13.00;88.60;;;;;;4976696;28;20022;-78
2024/03/05 10:47:54;;;;;;;17.58;11.88;;;13.00;88.70;;;;;;4976824;28;20030;-79
2024/03/05 10:50:20;;;;;;;17.92;11.80;;;13.10;88.70;;;;;;4995515;28;20030;-79
2024/03/05 10:52:50;;;;;;;16.50;11.27;;;13.00;88.70;;;;;;4976466;28;20041;-78
2024/03/05 10:55:21;;;;;;;17.80;11.40;;;13.00;88.80;;;;;;4975376;28;20057;-79
2024/03/05 11:00:35;;;;;;;17.75;11.73;;;13.00;88.80;;;;;;4994029;28;20101;-78
2024/03/05 11:03:10;;;;;;;19.40;11.98;;;13.00;88.80;;;;;;4993676;28;20072;-78
2024/03/05 11:05:57;;;;;;;18.30;11.63;;;13.00;88.90;;;;;;4976543;28;20057;-78
2024/03/05 11:08:26;;;;;;;17.75;11.27;;;13.00;88.90;;;;;;4993723;28;20022;-78
2024/03/05 11:10:57;;;;;;;18.05;11.35;;;13.00;88.90;;;;;;4976147;28;20072;-78
2024/03/05 11:13:24;;;;;;;17.25;11.15;;;13.00;89.00;;;;;;4976046;28;20545;-78
2024/03/05 11:15:50;;;;;;;18.00;11.82;;;13.00;89.00;;;;;;4976402;28;20074;-78
2024/03/05 11:18:39;;;;;;;18.90;11.90;;;12.90;89.00;;;;;;4976418;28;20027;-79
2024/03/05 11:21:09;;;;;;;17.30;11.02;;;13.00;89.10;;;;;;4993721;28;20027;-78
2024/03/05 11:23:38;;;;;;;16.90;11.55;;;12.90;89.00;;;;;;4976228;28;20491;-78
2024/03/05 11:26:06;;;;;;;16.42;10.68;;;13.00;89.10;;;;;;4976095;28;20113;-80
2024/03/05 11:28:33;;;;;;;18.55;11.40;;;12.90;89.00;;;;;;4975858;28;20022;-78
2024/03/05 11:31:17;;;;;;;17.48;10.82;;;12.90;89.10;;;;;;4976156;28;20678;-78
2024/03/05 11:33:51;;;;;;;16.98;11.13;;;12.90;89.10;;;;;;4975942;28;20037;-78
2024/03/05 11:36:22;;;;;;;16.48;10.75;;;12.90;89.10;;;;;;4976023;28;20026;-78
2024/03/05 11:39:04;;;;;;;16.52;10.70;;;12.90;89.10;;;;;;4993287;28;20031;-79
2024/03/05 11:41:34;;;;;;;17.60;11.05;;;12.90;89.10;;;;;;4975663;28;20022;-78
2024/03/05 11:44:00;;;;;;;18.23;10.73;;;12.90;89.20;;;;;;4975390;28;20053;-78
2024/03/05 11:46:39;;;;;;;15.82;10.43;;;12.90;89.20;;;;;;4975777;28;20022;-78
2024/03/05 11:49:05;;;;;;;19.65;11.63;;;12.90;89.20;;;;;;4991700;28;20180;-79
2024/03/05 11:51:31;;;;;;;17.30;10.82;;;12.90;89.20;;;;;;4975342;28;20120;-79
2024/03/05 11:53:56;;;;;;;17.35;11.38;;;12.90;89.20;;;;;;4975222;28;20035;-78
2024/03/05 11:56:21;;;;;;;18.58;11.13;;;12.90;89.20;;;;;;4975138;28;20022;-79
2024/03/05 11:58:51;;;;;;;18.90;11.45;;;12.90;89.20;;;;;;4975347;28;20030;-78
2024/03/05 12:01:17;;;;;;;17.00;10.93;;;12.90;89.30;;;;;;4992803;28;20018;-78
2024/03/05 12:03:43;;;;;;;18.08;11.20;;;12.90;89.30;;;;;;4975429;28;20036;-78
2024/03/05 12:06:10;;;;;;;18.92;11.10;;;12.90;89.30;;;;;;4992820;28;20023;-77
2024/03/05 12:08:38;;;;;;;17.30;11.25;;;12.90;89.30;;;;;;4975325;28;20073;-78
2024/03/05 12:11:05;;;;;;;16.35;10.30;;;12.80;89.30;;;;;;4975092;28;20034;-79
2024/03/05 12:13:31;;;;;;;15.85;10.57;;;12.80;89.30;;;;;;4974766;28;20041;-78
2024/03/05 12:16:09;;;;;;;16.63;10.65;;;12.80;89.30;;;;;;4975184;28;20068;-79
2024/03/05 12:18:35;;;;;;;15.85;10.48;;;12.90;89.40;;;;;;4975045;28;20033;-79
2024/03/05 12:21:00;;;;;;;18.20;11.50;;;12.90;89.40;;;;;;4992373;28;20103;-79
2024/03/05 12:23:26;;;;;;;17.98;11.13;;;12.90;89.40;;;;;;4974574;28;20077;-78
2024/03/05 12:25:51;;;;;;;18.15;10.38;;;12.90;89.30;;;;;;4975262;28;20509;-78
2024/03/05 12:28:17;;;;;;;17.75;11.07;;;12.90;89.30;;;;;;4974557;28;20026;-78
2024/03/05 12:30:42;;;;;;;17.25;10.57;;;12.90;89.30;;;;;;4974939;28;20046;-78
2024/03/05 12:33:08;;;;;;;17.52;11.10;;;12.90;89.30;;;;;;4991782;28;20635;-78